createdAt,value
2023-04-30T00:00:44.143Z,80.20
2023-04-30T00:03:11.041Z,81.00
2023-04-30T00:05:38.663Z,81.50
2023-04-30T00:08:05.688Z,81.30
2023-04-30T00:10:32.570Z,81.70
2023-04-30T00:12:59.371Z,82.20
2023-04-30T00:15:26.252Z,82.40
2023-04-30T00:17:53.407Z,82.50
2023-04-30T00:20:20.274Z,82.10
2023-04-30T00:22:47.136Z,81.20
2023-04-30T00:25:14.004Z,81.90
2023-04-30T00:27:41.168Z,82.40
2023-04-30T00:30:08.374Z,82.80
2023-04-30T00:32:35.244Z,82.60
2023-04-30T00:35:03.012Z,82.80
2023-04-30T00:37:29.811Z,83.00
2023-04-30T00:39:56.801Z,83.30
2023-04-30T00:42:24.244Z,83.10
2023-04-30T00:44:50.994Z,83.50
2023-04-30T00:47:17.830Z,84.20
2023-04-30T00:49:44.845Z,85.00
2023-04-30T00:52:11.987Z,85.30
2023-04-30T00:54:38.860Z,86.20
2023-04-30T00:57:07.783Z,87.20
2023-04-30T00:59:35.312Z,87.40
2023-04-30T01:02:03.671Z,87.70
2023-04-30T01:04:30.717Z,87.90
2023-04-30T01:06:57.996Z,88.30
2023-04-30T01:09:24.979Z,88.10
2023-04-30T01:12:10.845Z,87.70
2023-04-30T01:15:29.214Z,87.10
2023-04-30T01:18:15.373Z,87.20
2023-04-30T01:20:54.282Z,87.50
2023-04-30T01:23:34.102Z,88.30
2023-04-30T01:26:27.754Z,89.30
2023-04-30T01:28:57.241Z,89.90
2023-04-30T01:31:24.464Z,90.20
2023-04-30T01:33:51.330Z,90.20
2023-04-30T01:36:40.107Z,90.00
2023-04-30T01:39:32.657Z,90.20
2023-04-30T01:42:13.149Z,90.30
2023-04-30T01:44:58.145Z,90.60
2023-04-30T01:47:39.108Z,91.00
2023-04-30T01:50:06.036Z,91.50
2023-04-30T01:52:41.366Z,91.60
2023-04-30T01:55:18.163Z,91.60
2023-04-30T01:57:59.487Z,91.90
2023-04-30T02:00:27.732Z,91.70
2023-04-30T02:02:54.614Z,92.20
2023-04-30T02:05:21.751Z,92.30
2023-04-30T02:07:50.958Z,92.50
2023-04-30T02:10:22.318Z,92.70
2023-04-30T02:12:49.502Z,93.20
2023-04-30T02:15:16.350Z,93.60
2023-04-30T02:17:43.406Z,93.50
2023-04-30T02:20:10.766Z,93.70
2023-04-30T02:22:37.658Z,93.80
2023-04-30T02:25:04.812Z,93.70
2023-04-30T02:27:32.856Z,93.80
2023-04-30T02:30:00.621Z,94.10
2023-04-30T02:32:27.467Z,94.50
2023-04-30T02:34:54.303Z,94.70
2023-04-30T02:37:21.140Z,95.10
2023-04-30T02:39:47.973Z,95.40
2023-04-30T02:42:14.798Z,95.60
2023-04-30T02:44:41.811Z,95.70
2023-04-30T02:47:08.629Z,95.70
2023-04-30T02:49:35.574Z,95.50
2023-04-30T02:52:02.547Z,96.00
2023-04-30T02:54:29.312Z,96.20
2023-04-30T02:56:56.514Z,96.50
2023-04-30T02:59:23.274Z,96.70
2023-04-30T03:01:50.261Z,96.50
2023-04-30T03:04:17.100Z,96.70
2023-04-30T03:06:44.107Z,96.70
2023-04-30T03:09:11.128Z,96.80
2023-04-30T03:11:37.967Z,96.90
2023-04-30T03:14:05.087Z,97.40
2023-04-30T03:16:32.086Z,97.00
2023-04-30T03:18:58.956Z,96.60
2023-04-30T03:21:25.908Z,96.60
2023-04-30T03:23:52.756Z,96.80
2023-04-30T03:26:20.958Z,96.70
2023-04-30T03:28:47.898Z,96.90
2023-04-30T03:31:14.801Z,96.90
2023-04-30T03:33:41.711Z,96.50
2023-04-30T03:36:08.460Z,96.50
2023-04-30T03:38:35.199Z,96.60
2023-04-30T03:41:01.970Z,96.70
2023-04-30T03:43:28.859Z,96.80
2023-04-30T03:45:55.761Z,96.70
2023-04-30T03:48:22.539Z,96.50
2023-04-30T03:50:49.984Z,96.30
2023-04-30T03:53:16.848Z,96.30
2023-04-30T03:55:43.677Z,95.90
2023-04-30T03:58:10.673Z,95.60
2023-04-30T04:00:37.595Z,95.50
2023-04-30T04:03:04.503Z,95.40
2023-04-30T04:05:31.376Z,95.40
2023-04-30T04:07:58.215Z,95.10
2023-04-30T04:10:25.129Z,95.00
2023-04-30T04:12:51.934Z,95.30
2023-04-30T04:15:18.781Z,95.30
2023-04-30T04:17:45.718Z,95.10
2023-04-30T04:20:14.124Z,95.20
2023-04-30T04:22:41.118Z,95.20
2023-04-30T04:25:08.834Z,95.30
2023-04-30T04:27:35.792Z,95.30
2023-04-30T04:30:03.819Z,95.20
2023-04-30T04:32:32.722Z,95.20
2023-04-30T04:34:59.727Z,95.10
2023-04-30T04:37:27.016Z,95.10
2023-04-30T04:39:53.967Z,95.00
2023-04-30T04:42:21.262Z,95.10
2023-04-30T04:44:48.087Z,95.20
2023-04-30T04:47:16.746Z,95.00
2023-04-30T04:49:43.573Z,95.00
2023-04-30T04:52:10.412Z,95.00
2023-04-30T04:54:37.244Z,94.90
2023-04-30T04:57:04.116Z,94.80
2023-04-30T04:59:31.169Z,94.70
2023-04-30T05:01:58.024Z,94.70
2023-04-30T05:04:24.893Z,94.70
2023-04-30T05:06:51.735Z,94.60
2023-04-30T05:09:18.536Z,95.00
2023-04-30T05:11:46.286Z,94.70
2023-04-30T05:14:13.196Z,94.50
2023-04-30T05:16:40.333Z,94.20
2023-04-30T05:19:09.666Z,94.80
2023-04-30T05:21:36.572Z,94.30
2023-04-30T05:24:03.922Z,94.60
2023-04-30T05:26:30.787Z,94.40
2023-04-30T05:28:57.729Z,94.50
2023-04-30T05:31:24.637Z,94.20
2023-04-30T05:33:51.465Z,94.50
2023-04-30T05:36:18.343Z,93.80
2023-04-30T05:38:45.492Z,93.90
2023-04-30T05:41:12.972Z,93.80
2023-04-30T05:43:39.862Z,93.90
2023-04-30T05:46:06.872Z,93.80
2023-04-30T05:48:33.813Z,93.20
2023-04-30T05:51:00.910Z,93.50
2023-04-30T05:53:27.810Z,93.50
2023-04-30T05:55:54.655Z,93.20
2023-04-30T05:58:21.485Z,93.20
2023-04-30T06:00:52.145Z,93.00
2023-04-30T06:03:19.665Z,92.30
2023-04-30T06:05:49.765Z,92.90
2023-04-30T06:08:16.658Z,91.40
2023-04-30T06:10:43.548Z,91.70
2023-04-30T06:13:10.371Z,91.60
2023-04-30T06:15:37.227Z,91.60
2023-04-30T06:18:04.086Z,91.20
2023-04-30T06:20:31.017Z,90.70
2023-04-30T06:22:57.854Z,90.50
2023-04-30T06:25:24.725Z,90.60
2023-04-30T06:27:53.985Z,88.80
2023-04-30T06:30:21.171Z,87.80
2023-04-30T06:32:48.124Z,87.10
2023-04-30T06:35:15.167Z,86.20
2023-04-30T06:37:42.055Z,83.30
2023-04-30T06:40:09.174Z,83.40
2023-04-30T06:42:36.092Z,83.20
2023-04-30T06:45:03.946Z,81.60
2023-04-30T06:47:34.761Z,82.10
2023-04-30T06:50:02.266Z,81.20
2023-04-30T06:52:29.948Z,80.80
2023-04-30T06:54:57.091Z,80.00
2023-04-30T06:57:24.788Z,79.80
2023-04-30T06:59:51.808Z,79.60
2023-04-30T07:02:21.254Z,78.60
2023-04-30T07:04:49.467Z,78.70
2023-04-30T07:07:16.444Z,79.10
2023-04-30T07:09:43.302Z,78.60
2023-04-30T07:12:12.025Z,78.10
2023-04-30T07:14:38.943Z,78.50
2023-04-30T07:17:06.103Z,78.00
2023-04-30T07:19:32.952Z,77.50
2023-04-30T07:21:59.764Z,76.30
2023-04-30T07:24:26.530Z,75.70
2023-04-30T07:26:53.309Z,75.30
2023-04-30T07:29:20.227Z,75.00
2023-04-30T07:31:47.046Z,73.60
2023-04-30T07:34:13.883Z,74.50
2023-04-30T07:36:40.774Z,74.40
2023-04-30T07:39:08.116Z,74.60
2023-04-30T07:41:35.003Z,74.10
2023-04-30T07:44:01.910Z,74.10
2023-04-30T07:46:28.835Z,74.10
2023-04-30T07:48:55.701Z,73.60
2023-04-30T07:51:22.731Z,73.70
2023-04-30T07:53:49.540Z,74.40
2023-04-30T07:56:16.498Z,74.30
2023-04-30T07:58:43.277Z,74.60
2023-04-30T08:01:10.090Z,74.60
2023-04-30T08:03:37.077Z,74.40
2023-04-30T08:06:05.316Z,73.80
2023-04-30T08:08:32.115Z,74.30
2023-04-30T08:10:58.909Z,73.70
2023-04-30T08:13:25.848Z,73.60
2023-04-30T08:15:52.655Z,73.70
2023-04-30T08:18:19.437Z,73.30
2023-04-30T08:20:46.264Z,73.00
2023-04-30T08:23:13.024Z,72.90
2023-04-30T08:25:39.867Z,72.60
2023-04-30T08:28:07.029Z,72.40
2023-04-30T08:30:33.820Z,72.70
2023-04-30T08:33:00.861Z,72.60
2023-04-30T08:35:29.772Z,72.60
2023-04-30T08:37:56.773Z,72.30
2023-04-30T08:40:33.812Z,71.50
2023-04-30T08:43:11.842Z,71.20
2023-04-30T08:45:38.838Z,71.80
2023-04-30T08:48:10.722Z,71.50
2023-04-30T08:50:37.586Z,71.00
2023-04-30T08:53:04.506Z,71.50
2023-04-30T08:55:34.023Z,71.20
2023-04-30T08:58:00.840Z,71.30
2023-04-30T09:00:27.848Z,70.80
2023-04-30T09:02:54.953Z,70.40
2023-04-30T09:05:21.910Z,69.90
2023-04-30T09:08:02.536Z,70.10
2023-04-30T09:10:32.869Z,70.70
2023-04-30T09:13:03.723Z,71.10
2023-04-30T09:15:31.911Z,70.60
2023-04-30T09:18:08.026Z,71.20
2023-04-30T09:20:35.370Z,71.00
2023-04-30T09:23:11.631Z,70.90
2023-04-30T09:25:42.704Z,70.80
2023-04-30T09:28:13.777Z,71.30
2023-04-30T09:30:42.127Z,71.70
2023-04-30T09:33:11.865Z,71.30
2023-04-30T09:35:41.860Z,70.90
2023-04-30T09:38:24.909Z,70.90
2023-04-30T09:40:51.798Z,70.40
2023-04-30T09:43:18.638Z,70.00
2023-04-30T09:45:49.084Z,70.20
2023-04-30T09:48:17.816Z,69.60
2023-04-30T09:50:46.266Z,68.50
2023-04-30T09:53:14.377Z,69.30
2023-04-30T09:55:45.967Z,69.00
2023-04-30T09:58:14.061Z,68.20
2023-04-30T10:00:42.141Z,67.30
2023-04-30T10:03:11.234Z,66.60
2023-04-30T10:05:49.079Z,66.20
2023-04-30T10:08:28.844Z,66.70
2023-04-30T10:11:03.920Z,67.50
2023-04-30T10:14:10.490Z,66.60
2023-04-30T10:16:58.860Z,66.20
2023-04-30T10:19:30.225Z,65.80
2023-04-30T10:21:57.676Z,65.90
2023-04-30T10:24:24.599Z,66.10
2023-04-30T10:26:51.553Z,66.30
2023-04-30T10:29:18.961Z,66.30
2023-04-30T10:31:48.078Z,65.70
2023-04-30T10:34:17.909Z,66.30
2023-04-30T10:36:50.422Z,66.40
2023-04-30T10:39:27.599Z,65.90
2023-04-30T10:42:05.791Z,65.70
2023-04-30T10:44:35.100Z,66.10
2023-04-30T10:47:02.635Z,67.40
2023-04-30T10:49:30.017Z,65.70
2023-04-30T10:52:00.750Z,66.00
2023-04-30T10:54:29.558Z,66.80
2023-04-30T10:57:17.960Z,66.50
2023-04-30T10:59:53.247Z,66.50
2023-04-30T11:02:20.651Z,66.50
2023-04-30T11:05:07.538Z,67.10
2023-04-30T11:07:34.936Z,67.20
2023-04-30T11:10:02.579Z,67.40
2023-04-30T11:12:29.717Z,68.00
2023-04-30T11:15:26.738Z,68.10
2023-04-30T11:18:01.085Z,67.90
2023-04-30T11:20:28.303Z,67.80
2023-04-30T11:23:38.513Z,68.20
2023-04-30T11:26:07.944Z,67.80
2023-04-30T11:28:36.674Z,66.70
2023-04-30T11:31:04.107Z,66.20
2023-04-30T11:33:34.600Z,66.50
2023-04-30T11:36:02.240Z,66.50
2023-04-30T11:38:34.538Z,66.80
2023-04-30T11:41:02.667Z,66.10
2023-04-30T11:43:31.322Z,66.20
2023-04-30T11:46:06.415Z,66.20
2023-04-30T11:48:38.124Z,65.30
2023-04-30T11:51:22.181Z,66.00
2023-04-30T11:53:50.712Z,64.50
2023-04-30T11:56:25.736Z,65.10
2023-04-30T11:58:53.500Z,66.20
2023-04-30T12:01:21.145Z,65.70
2023-04-30T12:03:50.335Z,64.90
2023-04-30T12:06:28.738Z,64.30
2023-04-30T12:08:57.260Z,63.90
2023-04-30T12:11:26.265Z,64.00
2023-04-30T12:13:56.960Z,62.90
2023-04-30T12:16:25.621Z,62.80
2023-04-30T12:18:52.990Z,62.90
2023-04-30T12:21:23.056Z,62.10
2023-04-30T12:23:50.059Z,62.60
2023-04-30T12:26:17.873Z,62.50
2023-04-30T12:28:47.935Z,63.00
2023-04-30T12:31:14.729Z,63.20
2023-04-30T12:33:41.797Z,63.30
2023-04-30T12:36:12.136Z,63.90
2023-04-30T12:38:43.885Z,64.40
2023-04-30T12:41:15.388Z,64.90
2023-04-30T12:43:42.235Z,66.10
2023-04-30T12:46:09.062Z,66.00
2023-04-30T12:48:47.303Z,66.10
2023-04-30T12:51:20.094Z,65.60
2023-04-30T12:53:47.074Z,66.00
2023-04-30T12:56:16.366Z,66.40
2023-04-30T12:58:50.208Z,66.10
2023-04-30T13:01:24.612Z,65.80
2023-04-30T13:03:54.811Z,66.40
2023-04-30T13:06:23.415Z,66.60
2023-04-30T13:08:58.326Z,66.70
2023-04-30T13:11:27.027Z,66.80
2023-04-30T13:13:57.295Z,66.80
2023-04-30T13:16:27.361Z,67.00
2023-04-30T13:18:55.009Z,67.00
2023-04-30T13:21:22.529Z,66.90
2023-04-30T13:23:53.344Z,66.90
2023-04-30T13:26:23.318Z,66.80
2023-04-30T13:28:50.456Z,66.90
2023-04-30T13:31:17.335Z,67.10
2023-04-30T13:33:44.175Z,67.30
2023-04-30T13:36:11.093Z,67.60
2023-04-30T13:38:39.308Z,67.20
2023-04-30T13:41:06.592Z,67.30
2023-04-30T13:43:33.480Z,67.20
2023-04-30T13:46:00.318Z,67.60
2023-04-30T13:48:27.237Z,67.80
2023-04-30T13:50:54.515Z,67.80
2023-04-30T13:53:21.289Z,67.80
2023-04-30T13:55:48.214Z,67.90
2023-04-30T13:58:15.820Z,67.90
2023-04-30T14:00:43.012Z,68.00
2023-04-30T14:03:10.330Z,68.40
2023-04-30T14:05:37.643Z,68.60
2023-04-30T14:08:05.482Z,68.80
2023-04-30T14:10:32.927Z,68.10
2023-04-30T14:12:59.766Z,68.20
2023-04-30T14:15:27.655Z,68.50
2023-04-30T14:17:54.555Z,68.60
2023-04-30T14:20:21.484Z,68.60
2023-04-30T14:22:48.249Z,68.60
2023-04-30T14:25:15.081Z,68.10
2023-04-30T14:27:42.013Z,67.80
2023-04-30T14:30:10.148Z,67.30
2023-04-30T14:32:37.716Z,66.70
2023-04-30T14:35:05.345Z,66.00
2023-04-30T14:37:32.137Z,65.80
2023-04-30T14:40:00.394Z,66.30
2023-04-30T14:42:27.312Z,66.00
2023-04-30T14:44:54.138Z,66.40
2023-04-30T14:47:21.503Z,65.70
2023-04-30T14:49:50.278Z,66.40
2023-04-30T14:52:17.029Z,66.50
2023-04-30T14:54:44.286Z,66.60
2023-04-30T14:57:11.431Z,66.20
2023-04-30T14:59:40.060Z,66.80
2023-04-30T15:02:07.606Z,66.80
2023-04-30T15:04:34.519Z,67.30
2023-04-30T15:07:02.630Z,67.00
2023-04-30T15:09:29.564Z,67.10
2023-04-30T15:11:56.570Z,67.00
2023-04-30T15:14:23.447Z,67.50
2023-04-30T15:16:50.300Z,67.60
2023-04-30T15:19:17.139Z,68.40
2023-04-30T15:21:43.958Z,68.70
2023-04-30T15:24:10.804Z,68.70
2023-04-30T15:26:37.622Z,69.30
2023-04-30T15:29:04.460Z,69.20
2023-04-30T15:31:32.892Z,69.20
2023-04-30T15:33:59.793Z,69.70
2023-04-30T15:36:27.305Z,69.60
2023-04-30T15:38:54.264Z,69.50
2023-04-30T15:41:21.751Z,69.80
2023-04-30T15:43:48.612Z,69.70
2023-04-30T15:46:17.180Z,70.10
2023-04-30T15:48:44.014Z,70.10
2023-04-30T15:51:10.974Z,69.80
2023-04-30T15:53:37.847Z,69.70
2023-04-30T15:56:05.159Z,69.60
2023-04-30T15:58:31.988Z,69.80
2023-04-30T16:00:58.806Z,70.00
2023-04-30T16:03:25.757Z,69.50
2023-04-30T16:05:52.598Z,69.80
2023-04-30T16:08:19.719Z,70.00
2023-04-30T16:10:47.061Z,70.10
2023-04-30T16:13:13.900Z,69.60
2023-04-30T16:15:40.791Z,69.70
2023-04-30T16:18:08.050Z,70.20
2023-04-30T16:20:36.924Z,70.10
2023-04-30T16:23:05.163Z,70.10
2023-04-30T16:25:32.386Z,70.60
2023-04-30T16:27:59.176Z,70.80
2023-04-30T16:30:26.096Z,71.10
2023-04-30T16:32:53.040Z,70.90
2023-04-30T16:35:19.986Z,71.20
2023-04-30T16:37:46.777Z,71.50
2023-04-30T16:40:13.551Z,71.70
2023-04-30T16:42:40.419Z,72.10
2023-04-30T16:45:08.092Z,72.10
2023-04-30T16:47:34.942Z,72.30
2023-04-30T16:50:02.089Z,72.20
2023-04-30T16:52:29.642Z,72.60
2023-04-30T16:54:56.397Z,72.70
2023-04-30T16:57:25.126Z,72.70
2023-04-30T16:59:52.412Z,72.60
2023-04-30T17:02:19.539Z,72.30
2023-04-30T17:04:46.421Z,72.20
2023-04-30T17:07:13.181Z,72.40
2023-04-30T17:09:39.961Z,72.40
2023-04-30T17:12:07.558Z,72.60
2023-04-30T17:14:34.542Z,72.70
2023-04-30T17:17:01.765Z,72.90
2023-04-30T17:19:28.576Z,72.60
2023-04-30T17:21:55.970Z,72.90
2023-04-30T17:24:24.177Z,72.80
2023-04-30T17:26:51.543Z,73.00
2023-04-30T17:29:19.756Z,73.30
2023-04-30T17:31:47.345Z,73.70
2023-04-30T17:34:14.284Z,73.80
2023-04-30T17:36:41.949Z,74.30
2023-04-30T17:39:08.776Z,74.50
2023-04-30T17:41:35.758Z,74.80
2023-04-30T17:44:02.619Z,75.10
2023-04-30T17:46:29.648Z,75.70
2023-04-30T17:48:56.494Z,76.10
2023-04-30T17:51:23.360Z,76.00
2023-04-30T17:53:50.337Z,76.30
2023-04-30T17:56:17.694Z,76.40
2023-04-30T17:58:45.864Z,76.20
2023-04-30T18:01:13.452Z,75.80
2023-04-30T18:03:40.453Z,76.10
2023-04-30T18:06:07.572Z,76.40
2023-04-30T18:08:34.566Z,76.70
2023-04-30T18:11:04.595Z,77.10
2023-04-30T18:13:31.604Z,76.80
2023-04-30T18:15:58.575Z,76.60
2023-04-30T18:18:25.350Z,76.30
2023-04-30T18:20:53.110Z,76.40
2023-04-30T18:23:20.934Z,76.50
2023-04-30T18:25:48.010Z,75.70
2023-04-30T18:28:15.108Z,75.80
2023-04-30T18:30:42.475Z,75.00
2023-04-30T18:33:09.336Z,75.10
2023-04-30T18:35:36.733Z,75.40
2023-04-30T18:38:03.604Z,75.40
2023-04-30T18:40:31.006Z,76.00
2023-04-30T18:42:57.819Z,75.40
2023-04-30T18:45:24.808Z,75.60
2023-04-30T18:47:51.900Z,76.10
2023-04-30T18:50:19.572Z,76.30
2023-04-30T18:52:46.659Z,76.00
2023-04-30T18:55:14.067Z,76.00
2023-04-30T18:57:42.486Z,76.50
2023-04-30T19:00:10.561Z,76.50
2023-04-30T19:02:37.432Z,76.30
2023-04-30T19:05:05.177Z,76.30
2023-04-30T19:07:32.124Z,76.80
2023-04-30T19:09:59.334Z,77.50
2023-04-30T19:12:26.212Z,76.80
2023-04-30T19:14:53.037Z,77.40
2023-04-30T19:17:21.823Z,78.20
2023-04-30T19:19:50.136Z,78.20
2023-04-30T19:22:17.463Z,78.30
2023-04-30T19:24:44.439Z,78.30
2023-04-30T19:27:11.528Z,78.40
2023-04-30T19:29:39.546Z,78.20
2023-04-30T19:32:07.006Z,77.80
2023-04-30T19:34:34.606Z,77.50
2023-04-30T19:37:01.671Z,77.60
2023-04-30T19:39:31.892Z,77.50
2023-04-30T19:41:58.958Z,77.90
2023-04-30T19:44:27.717Z,77.70
2023-04-30T19:46:54.611Z,77.20
2023-04-30T19:49:24.677Z,77.20
2023-04-30T19:51:53.235Z,77.30
2023-04-30T19:54:20.183Z,77.40
2023-04-30T19:56:47.347Z,77.30
2023-04-30T19:59:14.418Z,77.40
2023-04-30T20:01:42.395Z,77.10
2023-04-30T20:04:09.996Z,76.90
2023-04-30T20:06:37.060Z,76.70
2023-04-30T20:09:04.130Z,77.10
2023-04-30T20:11:31.020Z,77.30
2023-04-30T20:13:57.876Z,77.40
2023-04-30T20:16:24.756Z,77.10
2023-04-30T20:18:54.471Z,75.80
2023-04-30T20:21:21.487Z,75.80
2023-04-30T20:23:48.342Z,75.80
2023-04-30T20:26:15.151Z,76.10
2023-04-30T20:28:41.970Z,76.00
2023-04-30T20:31:09.736Z,76.30
2023-04-30T20:33:36.675Z,76.20
2023-04-30T20:36:03.742Z,76.00
2023-04-30T20:38:30.993Z,76.30
2023-04-30T20:40:58.764Z,76.30
2023-04-30T20:43:25.728Z,76.90
2023-04-30T20:45:56.260Z,77.10
2023-04-30T20:48:23.060Z,77.70
2023-04-30T20:50:49.919Z,78.50
2023-04-30T20:53:16.759Z,78.70
2023-04-30T20:55:43.766Z,79.60
2023-04-30T20:58:10.985Z,78.80
2023-04-30T21:00:37.811Z,78.50
2023-04-30T21:03:04.759Z,79.30
2023-04-30T21:05:32.292Z,78.90
2023-04-30T21:08:01.257Z,78.50
2023-04-30T21:10:35.357Z,78.60
2023-04-30T21:13:08.819Z,79.20
2023-04-30T21:15:36.507Z,78.00
2023-04-30T21:18:03.711Z,76.80
2023-04-30T21:20:31.509Z,76.50
2023-04-30T21:22:58.662Z,76.70
2023-04-30T21:25:25.625Z,77.30
2023-04-30T21:27:52.451Z,78.30
2023-04-30T21:30:19.405Z,79.00
2023-04-30T21:32:47.209Z,79.30
2023-04-30T21:35:14.509Z,79.20
2023-04-30T21:37:42.153Z,79.10
2023-04-30T21:40:09.522Z,78.80
2023-04-30T21:42:36.425Z,78.80
2023-04-30T21:45:03.452Z,79.00
2023-04-30T21:47:30.874Z,79.50
2023-04-30T21:49:58.782Z,78.50
2023-04-30T21:52:25.997Z,78.50
2023-04-30T21:54:52.777Z,78.20
2023-04-30T21:57:19.701Z,78.10
2023-04-30T21:59:46.536Z,78.00
2023-04-30T22:02:23.922Z,77.50
2023-04-30T22:04:51.353Z,77.50
2023-04-30T22:07:18.301Z,77.60
2023-04-30T22:09:45.486Z,77.30
2023-04-30T22:12:12.386Z,77.60
2023-04-30T22:14:39.242Z,78.30
2023-04-30T22:17:06.109Z,79.70
2023-04-30T22:19:32.993Z,79.70
2023-04-30T22:21:59.765Z,81.10
2023-04-30T22:24:26.532Z,82.00
2023-04-30T22:26:53.355Z,83.00
2023-04-30T22:29:20.417Z,83.70
2023-04-30T22:31:47.535Z,84.70
2023-04-30T22:34:15.584Z,85.00
2023-04-30T22:36:43.589Z,85.30
2023-04-30T22:39:10.363Z,85.70
2023-04-30T22:41:37.370Z,85.90
2023-04-30T22:44:05.349Z,86.60
2023-04-30T22:46:34.824Z,87.30
2023-04-30T22:49:01.788Z,87.60
2023-04-30T22:51:28.661Z,88.10
2023-04-30T22:53:56.424Z,88.60
2023-04-30T22:56:23.387Z,89.00
2023-04-30T22:58:50.160Z,89.20
2023-04-30T23:01:17.515Z,89.80
2023-04-30T23:03:44.634Z,90.00
2023-04-30T23:06:11.783Z,90.20
2023-04-30T23:08:38.688Z,90.60
2023-04-30T23:11:05.765Z,90.70
2023-04-30T23:13:32.824Z,90.80
2023-04-30T23:16:01.314Z,90.70
2023-04-30T23:18:28.417Z,91.10
2023-04-30T23:20:58.810Z,91.50
2023-04-30T23:23:26.541Z,91.60
2023-04-30T23:25:54.437Z,91.20
2023-04-30T23:28:21.591Z,91.10
2023-04-30T23:30:55.041Z,91.50
2023-04-30T23:33:22.105Z,91.40
2023-04-30T23:35:48.992Z,91.20
2023-04-30T23:38:16.352Z,91.00
2023-04-30T23:40:43.856Z,91.10
2023-04-30T23:43:11.565Z,91.10
2023-04-30T23:45:45.009Z,91.00
2023-04-30T23:48:12.037Z,91.00
2023-04-30T23:50:38.906Z,90.80
2023-04-30T23:53:05.849Z,90.50
2023-04-30T23:55:32.898Z,90.50
2023-04-30T23:57:59.731Z,90.20
